Terminal Aerodrome Forecast
Issued by NWS

Home | Current Version | Previous Version | Text Only | Print | Product List | Glossary On
Versions: 1 2 3 4 5 6 7 8 9 10 11 12 13 14 15 16 17 18 19 20 21 22
000
FTAK31 PANC 242149 AAB
TAFACD
TAF AMD
PACD 242149Z 2422/2518 14022KT P6SM BKN026
      TEMPO 2422/2424 SCT025 BKN035
     FM250000 12022G32KT P6SM -RA SCT015 BKN025
     FM250400 12025G35KT 3SM -RA BR OVC015=

USA.gov is the U.S. government's official web portal to all federal, state and local government web resources and services.